sensor_id;sensor_type;location;lat;lon;timestamp;P1;durP1;ratioP1;P2;durP2;ratioP2
56593;SDS011;42474;51.660;5.824;2023-03-01T00:03:28;11.4;;;6.8;;
56593;SDS011;42474;51.660;5.824;2023-03-01T00:08:28;9.2;;;6.6;;
56593;SDS011;42474;51.660;5.824;2023-03-01T00:13:28;10.7;;;6.6;;
56593;SDS011;42474;51.660;5.824;2023-03-01T00:18:28;9.8;;;6.9;;
56593;SDS011;42474;51.660;5.824;2023-03-01T00:23:28;9.0;;;6.2;;
56593;SDS011;42474;51.660;5.824;2023-03-01T00:28:28;8.4;;;5.6;;
56593;SDS011;42474;51.660;5.824;2023-03-01T00:33:28;9.8;;;6.0;;
56593;SDS011;42474;51.660;5.824;2023-03-01T00:38:28;8.8;;;6.0;;
56593;SDS011;42474;51.660;5.824;2023-03-01T00:43:28;9.0;;;5.7;;
56593;SDS011;42474;51.660;5.824;2023-03-01T00:48:28;8.2;;;6.2;;
56593;SDS011;42474;51.660;5.824;2023-03-01T00:53:28;10.3;;;6.6;;
56593;SDS011;42474;51.660;5.824;2023-03-01T00:58:29;9.4;;;6.7;;
56593;SDS011;42474;51.660;5.824;2023-03-01T01:03:28;9.9;;;6.1;;
56593;SDS011;42474;51.660;5.824;2023-03-01T01:08:28;9.7;;;6.7;;
56593;SDS011;42474;51.660;5.824;2023-03-01T01:13:28;10.9;;;6.9;;
56593;SDS011;42474;51.660;5.824;2023-03-01T01:18:28;8.7;;;6.7;;
56593;SDS011;42474;51.660;5.824;2023-03-01T01:23:28;9.3;;;6.4;;
56593;SDS011;42474;51.660;5.824;2023-03-01T01:28:28;11.7;;;6.6;;
56593;SDS011;42474;51.660;5.824;2023-03-01T01:33:28;11.4;;;7.0;;
56593;SDS011;42474;51.660;5.824;2023-03-01T01:38:28;10.2;;;6.4;;
56593;SDS011;42474;51.660;5.824;2023-03-01T01:43:29;9.5;;;6.6;;
56593;SDS011;42474;51.660;5.824;2023-03-01T01:48:29;11.1;;;6.9;;
56593;SDS011;42474;51.660;5.824;2023-03-01T01:53:28;9.4;;;6.2;;
56593;SDS011;42474;51.660;5.824;2023-03-01T01:58:29;9.8;;;6.2;;
56593;SDS011;42474;51.660;5.824;2023-03-01T02:03:29;9.4;;;6.3;;
56593;SDS011;42474;51.660;5.824;2023-03-01T02:08:29;11.0;;;6.7;;
56593;SDS011;42474;51.660;5.824;2023-03-01T02:13:28;9.6;;;6.6;;
56593;SDS011;42474;51.660;5.824;2023-03-01T02:18:28;8.8;;;6.4;;
56593;SDS011;42474;51.660;5.824;2023-03-01T02:23:28;10.4;;;6.9;;
56593;SDS011;42474;51.660;5.824;2023-03-01T02:28:29;10.9;;;6.7;;
56593;SDS011;42474;51.660;5.824;2023-03-01T02:33:29;10.4;;;7.1;;
56593;SDS011;42474;51.660;5.824;2023-03-01T02:38:28;11.1;;;6.9;;
56593;SDS011;42474;51.660;5.824;2023-03-01T02:43:30;13.0;;;6.7;;
56593;SDS011;42474;51.660;5.824;2023-03-01T02:48:37;10.5;;;7.0;;
56593;SDS011;42474;51.660;5.824;2023-03-01T02:53:55;9.0;;;6.4;;
56593;SDS011;42474;51.660;5.824;2023-03-01T02:58:28;10.0;;;6.6;;
56593;SDS011;42474;51.660;5.824;2023-03-01T03:03:28;8.9;;;6.8;;
56593;SDS011;42474;51.660;5.824;2023-03-01T03:08:28;9.5;;;6.7;;
56593;SDS011;42474;51.660;5.824;2023-03-01T03:13:28;9.8;;;6.9;;
56593;SDS011;42474;51.660;5.824;2023-03-01T03:18:28;12.2;;;6.9;;
56593;SDS011;42474;51.660;5.824;2023-03-01T03:23:28;12.4;;;7.4;;
56593;SDS011;42474;51.660;5.824;2023-03-01T03:28:28;10.1;;;6.7;;
56593;SDS011;42474;51.660;5.824;2023-03-01T03:33:29;10.3;;;7.4;;
56593;SDS011;42474;51.660;5.824;2023-03-01T03:38:28;11.5;;;7.0;;
56593;SDS011;42474;51.660;5.824;2023-03-01T03:43:30;11.5;;;7.5;;
56593;SDS011;42474;51.660;5.824;2023-03-01T03:48:28;12.4;;;7.9;;
56593;SDS011;42474;51.660;5.824;2023-03-01T03:53:29;10.8;;;7.2;;
56593;SDS011;42474;51.660;5.824;2023-03-01T03:58:28;10.3;;;7.0;;
56593;SDS011;42474;51.660;5.824;2023-03-01T04:03:29;10.5;;;7.5;;
56593;SDS011;42474;51.660;5.824;2023-03-01T04:08:28;10.7;;;7.5;;
56593;SDS011;42474;51.660;5.824;2023-03-01T04:13:28;12.7;;;8.4;;
56593;SDS011;42474;51.660;5.824;2023-03-01T04:18:28;14.0;;;7.9;;
56593;SDS011;42474;51.660;5.824;2023-03-01T04:23:28;9.7;;;7.3;;
56593;SDS011;42474;51.660;5.824;2023-03-01T04:28:29;12.1;;;7.5;;
56593;SDS011;42474;51.660;5.824;2023-03-01T04:33:28;12.5;;;8.0;;
56593;SDS011;42474;51.660;5.824;2023-03-01T04:38:28;13.0;;;7.6;;
56593;SDS011;42474;51.660;5.824;2023-03-01T04:43:28;12.9;;;8.2;;
56593;SDS011;42474;51.660;5.824;2023-03-01T04:48:28;11.9;;;8.0;;
56593;SDS011;42474;51.660;5.824;2023-03-01T04:53:28;11.0;;;7.6;;
56593;SDS011;42474;51.660;5.824;2023-03-01T04:58:28;12.6;;;8.6;;
56593;SDS011;42474;51.660;5.824;2023-03-01T05:03:28;12.9;;;7.9;;
56593;SDS011;42474;51.660;5.824;2023-03-01T05:08:28;12.8;;;8.1;;
56593;SDS011;42474;51.660;5.824;2023-03-01T05:13:28;10.2;;;7.1;;
56593;SDS011;42474;51.660;5.824;2023-03-01T05:18:29;10.4;;;8.1;;
56593;SDS011;42474;51.660;5.824;2023-03-01T05:23:29;10.5;;;7.3;;
56593;SDS011;42474;51.660;5.824;2023-03-01T05:28:28;12.6;;;7.9;;
56593;SDS011;42474;51.660;5.824;2023-03-01T05:33:28;12.2;;;7.6;;
56593;SDS011;42474;51.660;5.824;2023-03-01T05:38:28;11.8;;;7.6;;
56593;SDS011;42474;51.660;5.824;2023-03-01T05:43:29;12.2;;;7.6;;
56593;SDS011;42474;51.660;5.824;2023-03-01T05:48:28;12.4;;;7.7;;
56593;SDS011;42474;51.660;5.824;2023-03-01T05:53:28;11.2;;;7.3;;
56593;SDS011;42474;51.660;5.824;2023-03-01T05:58:28;13.9;;;8.0;;
56593;SDS011;42474;51.660;5.824;2023-03-01T06:03:28;11.1;;;7.7;;
56593;SDS011;42474;51.660;5.824;2023-03-01T06:08:28;13.7;;;8.6;;
56593;SDS011;42474;51.660;5.824;2023-03-01T06:13:28;13.0;;;8.5;;
56593;SDS011;42474;51.660;5.824;2023-03-01T06:18:28;12.8;;;8.5;;
56593;SDS011;42474;51.660;5.824;2023-03-01T06:23:28;13.6;;;8.4;;
56593;SDS011;42474;51.660;5.824;2023-03-01T06:28:28;12.2;;;8.2;;
56593;SDS011;42474;51.660;5.824;2023-03-01T06:33:28;13.4;;;8.7;;
56593;SDS011;42474;51.660;5.824;2023-03-01T06:38:28;18.2;;;8.8;;
56593;SDS011;42474;51.660;5.824;2023-03-01T06:43:28;12.7;;;8.4;;
56593;SDS011;42474;51.660;5.824;2023-03-01T06:48:28;15.6;;;9.6;;
56593;SDS011;42474;51.660;5.824;2023-03-01T06:53:29;14.4;;;9.0;;
56593;SDS011;42474;51.660;5.824;2023-03-01T06:58:28;13.8;;;8.9;;
56593;SDS011;42474;51.660;5.824;2023-03-01T07:03:28;12.4;;;7.8;;
56593;SDS011;42474;51.660;5.824;2023-03-01T07:08:28;12.3;;;8.4;;
56593;SDS011;42474;51.660;5.824;2023-03-01T07:13:29;13.7;;;8.3;;
56593;SDS011;42474;51.660;5.824;2023-03-01T07:18:28;22.9;;;8.3;;
56593;SDS011;42474;51.660;5.824;2023-03-01T07:23:28;13.0;;;8.0;;
56593;SDS011;42474;51.660;5.824;2023-03-01T07:28:29;15.0;;;7.5;;
56593;SDS011;42474;51.660;5.824;2023-03-01T07:33:28;14.9;;;8.1;;
56593;SDS011;42474;51.660;5.824;2023-03-01T07:38:29;15.2;;;8.2;;
56593;SDS011;42474;51.660;5.824;2023-03-01T07:43:29;10.7;;;7.2;;
56593;SDS011;42474;51.660;5.824;2023-03-01T07:48:29;12.2;;;7.5;;
56593;SDS011;42474;51.660;5.824;2023-03-01T07:53:28;10.4;;;7.2;;
56593;SDS011;42474;51.660;5.824;2023-03-01T07:58:28;11.5;;;7.0;;
56593;SDS011;42474;51.660;5.824;2023-03-01T08:03:28;13.7;;;8.0;;
56593;SDS011;42474;51.660;5.824;2023-03-01T08:08:29;12.2;;;7.8;;
56593;SDS011;42474;51.660;5.824;2023-03-01T08:13:28;11.6;;;7.2;;
56593;SDS011;42474;51.660;5.824;2023-03-01T08:18:29;12.8;;;7.8;;
56593;SDS011;42474;51.660;5.824;2023-03-01T08:23:28;11.9;;;7.4;;
56593;SDS011;42474;51.660;5.824;2023-03-01T08:28:28;12.7;;;7.1;;
56593;SDS011;42474;51.660;5.824;2023-03-01T08:33:28;10.9;;;7.3;;
56593;SDS011;42474;51.660;5.824;2023-03-01T08:38:28;10.0;;;6.9;;
56593;SDS011;42474;51.660;5.824;2023-03-01T08:43:29;10.5;;;6.9;;
56593;SDS011;42474;51.660;5.824;2023-03-01T08:48:28;9.1;;;6.4;;
56593;SDS011;42474;51.660;5.824;2023-03-01T08:53:29;9.2;;;6.1;;
56593;SDS011;42474;51.660;5.824;2023-03-01T08:58:29;11.0;;;6.6;;
56593;SDS011;42474;51.660;5.824;2023-03-01T09:03:28;9.8;;;6.3;;
56593;SDS011;42474;51.660;5.824;2023-03-01T09:08:28;7.8;;;5.3;;
56593;SDS011;42474;51.660;5.824;2023-03-01T09:13:28;9.1;;;5.6;;
56593;SDS011;42474;51.660;5.824;2023-03-01T09:18:29;8.0;;;5.3;;
56593;SDS011;42474;51.660;5.824;2023-03-01T09:23:29;8.7;;;5.6;;
56593;SDS011;42474;51.660;5.824;2023-03-01T09:28:29;8.1;;;5.8;;
56593;SDS011;42474;51.660;5.824;2023-03-01T09:33:29;8.5;;;5.7;;
56593;SDS011;42474;51.660;5.824;2023-03-01T09:38:29;9.5;;;5.3;;
56593;SDS011;42474;51.660;5.824;2023-03-01T09:43:45;7.6;;;5.4;;
56593;SDS011;42474;51.660;5.824;2023-03-01T09:48:29;9.6;;;5.9;;
56593;SDS011;42474;51.660;5.824;2023-03-01T09:53:33;7.4;;;5.2;;
56593;SDS011;42474;51.660;5.824;2023-03-01T09:58:29;8.3;;;5.4;;
56593;SDS011;42474;51.660;5.824;2023-03-01T10:03:43;10.5;;;5.7;;
56593;SDS011;42474;51.660;5.824;2023-03-01T10:08:53;8.1;;;5.5;;
56593;SDS011;42474;51.660;5.824;2023-03-01T10:13:29;8.0;;;5.5;;
56593;SDS011;42474;51.660;5.824;2023-03-01T10:18:30;8.2;;;5.6;;
56593;SDS011;42474;51.660;5.824;2023-03-01T10:23:30;7.9;;;5.6;;
56593;SDS011;42474;51.660;5.824;2023-03-01T10:28:35;7.4;;;5.3;;
56593;SDS011;42474;51.660;5.824;2023-03-01T10:33:32;9.5;;;5.7;;
56593;SDS011;42474;51.660;5.824;2023-03-01T10:38:30;10.1;;;5.9;;
56593;SDS011;42474;51.660;5.824;2023-03-01T10:43:43;8.1;;;5.8;;
56593;SDS011;42474;51.660;5.824;2023-03-01T10:48:28;8.5;;;5.6;;
56593;SDS011;42474;51.660;5.824;2023-03-01T10:53:32;7.7;;;5.3;;
56593;SDS011;42474;51.660;5.824;2023-03-01T10:58:29;8.8;;;5.7;;
56593;SDS011;42474;51.660;5.824;2023-03-01T11:03:30;8.6;;;5.2;;
56593;SDS011;42474;51.660;5.824;2023-03-01T11:08:42;7.4;;;5.1;;
56593;SDS011;42474;51.660;5.824;2023-03-01T11:13:28;7.3;;;5.1;;
56593;SDS011;42474;51.660;5.824;2023-03-01T11:18:29;7.8;;;5.3;;
56593;SDS011;42474;51.660;5.824;2023-03-01T11:23:29;8.2;;;5.2;;
56593;SDS011;42474;51.660;5.824;2023-03-01T11:28:29;7.8;;;5.5;;
56593;SDS011;42474;51.660;5.824;2023-03-01T11:33:53;9.6;;;5.6;;
56593;SDS011;42474;51.660;5.824;2023-03-01T11:38:30;8.0;;;5.6;;
56593;SDS011;42474;51.660;5.824;2023-03-01T11:43:42;7.5;;;5.4;;
56593;SDS011;42474;51.660;5.824;2023-03-01T11:49:31;7.8;;;5.4;;
56593;SDS011;42474;51.660;5.824;2023-03-01T11:54:09;8.4;;;5.8;;
56593;SDS011;42474;51.660;5.824;2023-03-01T12:00:25;6.6;;;5.4;;
56593;SDS011;42474;51.660;5.824;2023-03-01T12:06:09;6.9;;;5.3;;
56593;SDS011;42474;51.660;5.824;2023-03-01T12:11:12;9.5;;;5.8;;
56593;SDS011;42474;51.660;5.824;2023-03-01T12:16:56;8.4;;;5.9;;
56593;SDS011;42474;51.660;5.824;2023-03-01T12:22:38;8.3;;;5.8;;
56593;SDS011;42474;51.660;5.824;2023-03-01T12:28:38;7.8;;;5.3;;
56593;SDS011;42474;51.660;5.824;2023-03-01T12:33:56;7.3;;;5.1;;
56593;SDS011;42474;51.660;5.824;2023-03-01T12:39:36;9.8;;;5.8;;
56593;SDS011;42474;51.660;5.824;2023-03-01T12:45:33;7.6;;;5.4;;
56593;SDS011;42474;51.660;5.824;2023-03-01T12:50:23;6.1;;;4.6;;
56593;SDS011;42474;51.660;5.824;2023-03-01T12:52:58;6.8;;;4.7;;
56593;SDS011;42474;51.660;5.824;2023-03-01T12:53:32;8.1;;;5.0;;
56593;SDS011;42474;51.660;5.824;2023-03-01T12:58:35;7.8;;;4.7;;
56593;SDS011;42474;51.660;5.824;2023-03-01T13:04:02;8.2;;;5.1;;
56593;SDS011;42474;51.660;5.824;2023-03-01T13:09:06;7.5;;;5.2;;
56593;SDS011;42474;51.660;5.824;2023-03-01T13:13:30;8.5;;;5.9;;
56593;SDS011;42474;51.660;5.824;2023-03-01T13:18:32;8.6;;;5.4;;
56593;SDS011;42474;51.660;5.824;2023-03-01T13:23:31;6.1;;;4.7;;
56593;SDS011;42474;51.660;5.824;2023-03-01T13:28:52;8.8;;;5.5;;
56593;SDS011;42474;51.660;5.824;2023-03-01T13:33:46;8.0;;;4.9;;
56593;SDS011;42474;51.660;5.824;2023-03-01T13:38:59;7.2;;;5.1;;
56593;SDS011;42474;51.660;5.824;2023-03-01T13:43:38;7.8;;;4.9;;
56593;SDS011;42474;51.660;5.824;2023-03-01T13:48:30;8.9;;;5.1;;
56593;SDS011;42474;51.660;5.824;2023-03-01T13:53:31;8.5;;;5.3;;
56593;SDS011;42474;51.660;5.824;2023-03-01T13:58:29;7.9;;;5.3;;
56593;SDS011;42474;51.660;5.824;2023-03-01T14:03:29;8.6;;;5.4;;
56593;SDS011;42474;51.660;5.824;2023-03-01T14:08:30;7.9;;;5.2;;
56593;SDS011;42474;51.660;5.824;2023-03-01T14:14:09;9.3;;;5.8;;
56593;SDS011;42474;51.660;5.824;2023-03-01T14:19:04;8.0;;;5.6;;
56593;SDS011;42474;51.660;5.824;2023-03-01T14:23:29;8.9;;;5.6;;
56593;SDS011;42474;51.660;5.824;2023-03-01T14:28:29;7.6;;;4.9;;
56593;SDS011;42474;51.660;5.824;2023-03-01T14:33:31;9.7;;;6.1;;
56593;SDS011;42474;51.660;5.824;2023-03-01T14:38:31;10.7;;;6.0;;
56593;SDS011;42474;51.660;5.824;2023-03-01T14:43:29;8.4;;;6.0;;
56593;SDS011;42474;51.660;5.824;2023-03-01T14:48:29;8.5;;;6.0;;
56593;SDS011;42474;51.660;5.824;2023-03-01T14:53:29;8.2;;;5.8;;
56593;SDS011;42474;51.660;5.824;2023-03-01T14:58:31;8.1;;;5.7;;
56593;SDS011;42474;51.660;5.824;2023-03-01T15:03:36;8.8;;;5.8;;
56593;SDS011;42474;51.660;5.824;2023-03-01T15:08:29;8.0;;;5.7;;
56593;SDS011;42474;51.660;5.824;2023-03-01T15:13:30;10.0;;;6.2;;
56593;SDS011;42474;51.660;5.824;2023-03-01T15:18:29;10.5;;;5.9;;
56593;SDS011;42474;51.660;5.824;2023-03-01T15:23:29;9.8;;;5.9;;
56593;SDS011;42474;51.660;5.824;2023-03-01T15:28:29;9.1;;;6.3;;
56593;SDS011;42474;51.660;5.824;2023-03-01T15:33:34;11.4;;;5.7;;
56593;SDS011;42474;51.660;5.824;2023-03-01T15:38:29;9.1;;;6.1;;
56593;SDS011;42474;51.660;5.824;2023-03-01T15:43:44;12.4;;;5.9;;
56593;SDS011;42474;51.660;5.824;2023-03-01T15:48:29;9.0;;;6.0;;
56593;SDS011;42474;51.660;5.824;2023-03-01T15:53:29;11.0;;;6.5;;
56593;SDS011;42474;51.660;5.824;2023-03-01T15:58:29;7.9;;;5.5;;
56593;SDS011;42474;51.660;5.824;2023-03-01T16:03:29;8.4;;;5.7;;
56593;SDS011;42474;51.660;5.824;2023-03-01T16:08:29;7.7;;;5.3;;
56593;SDS011;42474;51.660;5.824;2023-03-01T16:13:29;8.0;;;5.5;;
56593;SDS011;42474;51.660;5.824;2023-03-01T16:18:29;7.2;;;4.5;;
56593;SDS011;42474;51.660;5.824;2023-03-01T16:23:29;7.0;;;4.0;;
56593;SDS011;42474;51.660;5.824;2023-03-01T16:28:29;7.0;;;4.3;;
56593;SDS011;42474;51.660;5.824;2023-03-01T16:33:29;7.3;;;4.1;;
56593;SDS011;42474;51.660;5.824;2023-03-01T16:38:30;7.4;;;4.2;;
56593;SDS011;42474;51.660;5.824;2023-03-01T16:43:29;9.2;;;4.5;;
56593;SDS011;42474;51.660;5.824;2023-03-01T16:48:29;7.7;;;4.2;;
56593;SDS011;42474;51.660;5.824;2023-03-01T16:53:29;6.9;;;4.0;;
56593;SDS011;42474;51.660;5.824;2023-03-01T16:58:29;6.5;;;4.1;;
56593;SDS011;42474;51.660;5.824;2023-03-01T17:03:29;7.0;;;4.2;;
56593;SDS011;42474;51.660;5.824;2023-03-01T17:08:29;9.0;;;4.2;;
56593;SDS011;42474;51.660;5.824;2023-03-01T17:13:29;7.5;;;3.9;;
56593;SDS011;42474;51.660;5.824;2023-03-01T17:18:29;7.2;;;4.4;;
56593;SDS011;42474;51.660;5.824;2023-03-01T17:23:29;6.4;;;4.1;;
56593;SDS011;42474;51.660;5.824;2023-03-01T17:28:29;7.6;;;4.5;;
56593;SDS011;42474;51.660;5.824;2023-03-01T17:33:29;8.1;;;4.7;;
56593;SDS011;42474;51.660;5.824;2023-03-01T17:38:29;7.9;;;4.7;;
56593;SDS011;42474;51.660;5.824;2023-03-01T17:43:29;9.3;;;5.6;;
56593;SDS011;42474;51.660;5.824;2023-03-01T17:48:29;8.9;;;5.7;;
56593;SDS011;42474;51.660;5.824;2023-03-01T17:53:29;7.8;;;5.5;;
56593;SDS011;42474;51.660;5.824;2023-03-01T17:58:29;7.5;;;4.9;;
56593;SDS011;42474;51.660;5.824;2023-03-01T18:03:29;7.2;;;5.1;;
56593;SDS011;42474;51.660;5.824;2023-03-01T18:08:29;9.1;;;5.9;;
56593;SDS011;42474;51.660;5.824;2023-03-01T18:13:29;9.6;;;5.5;;
56593;SDS011;42474;51.660;5.824;2023-03-01T18:18:29;8.5;;;5.3;;
56593;SDS011;42474;51.660;5.824;2023-03-01T18:23:30;8.6;;;5.4;;
56593;SDS011;42474;51.660;5.824;2023-03-01T18:28:29;7.6;;;4.8;;
56593;SDS011;42474;51.660;5.824;2023-03-01T18:33:30;8.2;;;5.0;;
56593;SDS011;42474;51.660;5.824;2023-03-01T18:38:29;8.0;;;4.8;;
56593;SDS011;42474;51.660;5.824;2023-03-01T18:43:29;6.7;;;4.5;;
56593;SDS011;42474;51.660;5.824;2023-03-01T18:48:29;7.1;;;5.0;;
56593;SDS011;42474;51.660;5.824;2023-03-01T18:53:29;9.1;;;4.8;;
56593;SDS011;42474;51.660;5.824;2023-03-01T18:58:29;7.3;;;4.7;;
56593;SDS011;42474;51.660;5.824;2023-03-01T19:03:29;7.0;;;4.4;;
56593;SDS011;42474;51.660;5.824;2023-03-01T19:08:30;6.9;;;4.8;;
56593;SDS011;42474;51.660;5.824;2023-03-01T19:13:29;7.2;;;4.5;;
56593;SDS011;42474;51.660;5.824;2023-03-01T19:18:30;6.6;;;4.4;;
56593;SDS011;42474;51.660;5.824;2023-03-01T19:23:29;6.7;;;4.8;;
56593;SDS011;42474;51.660;5.824;2023-03-01T19:28:29;7.3;;;4.8;;
56593;SDS011;42474;51.660;5.824;2023-03-01T19:33:29;7.8;;;5.6;;
56593;SDS011;42474;51.660;5.824;2023-03-01T19:38:29;6.9;;;4.8;;
56593;SDS011;42474;51.660;5.824;2023-03-01T19:43:29;7.9;;;4.5;;
56593;SDS011;42474;51.660;5.824;2023-03-01T19:48:29;7.3;;;5.1;;
56593;SDS011;42474;51.660;5.824;2023-03-01T19:53:29;9.5;;;5.3;;
56593;SDS011;42474;51.660;5.824;2023-03-01T19:58:29;7.3;;;4.8;;
56593;SDS011;42474;51.660;5.824;2023-03-01T20:03:30;7.1;;;4.9;;
56593;SDS011;42474;51.660;5.824;2023-03-01T20:08:29;7.3;;;5.0;;
56593;SDS011;42474;51.660;5.824;2023-03-01T20:13:29;7.7;;;4.5;;
56593;SDS011;42474;51.660;5.824;2023-03-01T20:18:29;6.4;;;4.7;;
56593;SDS011;42474;51.660;5.824;2023-03-01T20:23:29;6.6;;;4.4;;
56593;SDS011;42474;51.660;5.824;2023-03-01T20:28:29;7.1;;;4.3;;
56593;SDS011;42474;51.660;5.824;2023-03-01T20:33:29;7.3;;;4.5;;
56593;SDS011;42474;51.660;5.824;2023-03-01T20:38:29;6.4;;;4.5;;
56593;SDS011;42474;51.660;5.824;2023-03-01T20:43:29;7.3;;;4.4;;
56593;SDS011;42474;51.660;5.824;2023-03-01T20:48:29;6.4;;;4.8;;
56593;SDS011;42474;51.660;5.824;2023-03-01T20:53:29;6.3;;;4.5;;
56593;SDS011;42474;51.660;5.824;2023-03-01T20:58:29;8.1;;;5.1;;
56593;SDS011;42474;51.660;5.824;2023-03-01T21:03:29;7.2;;;4.5;;
56593;SDS011;42474;51.660;5.824;2023-03-01T21:08:29;7.7;;;4.6;;
56593;SDS011;42474;51.660;5.824;2023-03-01T21:13:29;7.3;;;4.6;;
56593;SDS011;42474;51.660;5.824;2023-03-01T21:18:29;7.4;;;4.7;;
56593;SDS011;42474;51.660;5.824;2023-03-01T21:23:30;8.9;;;4.8;;
56593;SDS011;42474;51.660;5.824;2023-03-01T21:28:29;7.4;;;4.4;;
56593;SDS011;42474;51.660;5.824;2023-03-01T21:33:29;7.7;;;4.8;;
56593;SDS011;42474;51.660;5.824;2023-03-01T21:38:29;8.0;;;4.7;;
56593;SDS011;42474;51.660;5.824;2023-03-01T21:43:29;8.4;;;4.8;;
56593;SDS011;42474;51.660;5.824;2023-03-01T21:48:29;8.1;;;4.6;;
56593;SDS011;42474;51.660;5.824;2023-03-01T21:53:29;9.1;;;5.1;;
56593;SDS011;42474;51.660;5.824;2023-03-01T21:58:29;10.5;;;5.2;;
56593;SDS011;42474;51.660;5.824;2023-03-01T22:03:29;7.1;;;4.8;;
56593;SDS011;42474;51.660;5.824;2023-03-01T22:08:29;6.8;;;4.9;;
56593;SDS011;42474;51.660;5.824;2023-03-01T22:13:29;7.5;;;4.7;;
56593;SDS011;42474;51.660;5.824;2023-03-01T22:18:29;8.0;;;5.7;;
56593;SDS011;42474;51.660;5.824;2023-03-01T22:23:29;7.2;;;5.2;;
56593;SDS011;42474;51.660;5.824;2023-03-01T22:28:30;7.2;;;4.9;;
56593;SDS011;42474;51.660;5.824;2023-03-01T22:33:29;6.0;;;4.4;;
56593;SDS011;42474;51.660;5.824;2023-03-01T22:38:29;8.1;;;5.3;;
56593;SDS011;42474;51.660;5.824;2023-03-01T22:43:31;8.2;;;5.5;;
56593;SDS011;42474;51.660;5.824;2023-03-01T22:48:29;9.2;;;5.3;;
56593;SDS011;42474;51.660;5.824;2023-03-01T22:53:29;7.9;;;5.0;;
56593;SDS011;42474;51.660;5.824;2023-03-01T22:58:29;8.4;;;5.3;;
56593;SDS011;42474;51.660;5.824;2023-03-01T23:03:29;8.4;;;5.2;;
56593;SDS011;42474;51.660;5.824;2023-03-01T23:08:29;7.7;;;5.3;;
56593;SDS011;42474;51.660;5.824;2023-03-01T23:13:29;8.0;;;5.6;;
56593;SDS011;42474;51.660;5.824;2023-03-01T23:18:29;7.4;;;4.9;;
56593;SDS011;42474;51.660;5.824;2023-03-01T23:23:29;9.9;;;5.4;;
56593;SDS011;42474;51.660;5.824;2023-03-01T23:28:29;8.1;;;5.3;;
56593;SDS011;42474;51.660;5.824;2023-03-01T23:33:30;8.7;;;5.4;;
56593;SDS011;42474;51.660;5.824;2023-03-01T23:38:29;8.8;;;5.1;;
56593;SDS011;42474;51.660;5.824;2023-03-01T23:43:29;7.6;;;5.0;;
56593;SDS011;42474;51.660;5.824;2023-03-01T23:48:29;7.9;;;5.4;;
56593;SDS011;42474;51.660;5.824;2023-03-01T23:53:29;7.2;;;4.8;;
56593;SDS011;42474;51.660;5.824;2023-03-01T23:58:29;9.2;;;5.3;;
